sensor_id;sensor_type;location;lat;lon;timestamp;P1;durP1;ratioP1;P2;durP2;ratioP2
57551;SDS011;43379;48.160;14.036;2022-09-17T00:00:24;3.23;;;3.00;;
57551;SDS011;43379;48.160;14.036;2022-09-17T00:02:53;3.67;;;3.33;;
57551;SDS011;43379;48.160;14.036;2022-09-17T00:05:23;3.60;;;3.30;;
57551;SDS011;43379;48.160;14.036;2022-09-17T00:07:49;3.20;;;2.87;;
57551;SDS011;43379;48.160;14.036;2022-09-17T00:10:16;3.10;;;2.90;;
57551;SDS011;43379;48.160;14.036;2022-09-17T00:12:43;2.73;;;2.53;;
57551;SDS011;43379;48.160;14.036;2022-09-17T00:15:09;2.80;;;2.60;;
57551;SDS011;43379;48.160;14.036;2022-09-17T00:17:34;3.17;;;2.87;;
57551;SDS011;43379;48.160;14.036;2022-09-17T00:20:00;2.57;;;2.37;;
57551;SDS011;43379;48.160;14.036;2022-09-17T00:22:27;2.97;;;2.50;;
57551;SDS011;43379;48.160;14.036;2022-09-17T00:24:52;2.47;;;2.27;;
57551;SDS011;43379;48.160;14.036;2022-09-17T00:27:18;2.83;;;2.63;;
57551;SDS011;43379;48.160;14.036;2022-09-17T00:29:44;2.80;;;2.60;;
57551;SDS011;43379;48.160;14.036;2022-09-17T00:32:11;2.50;;;2.30;;
57551;SDS011;43379;48.160;14.036;2022-09-17T00:34:37;3.23;;;2.60;;
57551;SDS011;43379;48.160;14.036;2022-09-17T00:37:02;2.60;;;2.40;;
57551;SDS011;43379;48.160;14.036;2022-09-17T00:39:28;3.00;;;2.70;;
57551;SDS011;43379;48.160;14.036;2022-09-17T00:41:54;3.07;;;2.87;;
57551;SDS011;43379;48.160;14.036;2022-09-17T00:47:44;3.50;;;3.27;;
57551;SDS011;43379;48.160;14.036;2022-09-17T00:50:28;4.73;;;2.90;;
57551;SDS011;43379;48.160;14.036;2022-09-17T00:53:07;3.27;;;2.97;;
57551;SDS011;43379;48.160;14.036;2022-09-17T00:55:42;3.23;;;3.00;;
57551;SDS011;43379;48.160;14.036;2022-09-17T00:58:13;3.40;;;3.10;;
57551;SDS011;43379;48.160;14.036;2022-09-17T01:00:41;3.93;;;3.30;;
57551;SDS011;43379;48.160;14.036;2022-09-17T01:03:07;3.27;;;3.07;;
57551;SDS011;43379;48.160;14.036;2022-09-17T01:05:39;3.27;;;2.93;;
57551;SDS011;43379;48.160;14.036;2022-09-17T01:17:25;3.07;;;2.87;;
57551;SDS011;43379;48.160;14.036;2022-09-17T01:32:15;4.30;;;3.83;;
57551;SDS011;43379;48.160;14.036;2022-09-17T01:37:50;3.70;;;3.40;;
57551;SDS011;43379;48.160;14.036;2022-09-17T01:45:52;4.30;;;3.97;;
57551;SDS011;43379;48.160;14.036;2022-09-17T01:48:32;4.10;;;3.80;;
57551;SDS011;43379;48.160;14.036;2022-09-17T01:51:06;5.03;;;3.50;;
57551;SDS011;43379;48.160;14.036;2022-09-17T01:53:44;4.23;;;3.83;;
57551;SDS011;43379;48.160;14.036;2022-09-17T01:56:15;4.00;;;3.70;;
57551;SDS011;43379;48.160;14.036;2022-09-17T01:58:50;4.30;;;3.90;;
57551;SDS011;43379;48.160;14.036;2022-09-17T02:01:22;4.67;;;4.30;;
57551;SDS011;43379;48.160;14.036;2022-09-17T02:03:53;3.80;;;3.50;;
57551;SDS011;43379;48.160;14.036;2022-09-17T02:06:28;3.97;;;3.67;;
57551;SDS011;43379;48.160;14.036;2022-09-17T02:09:04;3.70;;;3.40;;
57551;SDS011;43379;48.160;14.036;2022-09-17T02:11:35;3.60;;;3.30;;
57551;SDS011;43379;48.160;14.036;2022-09-17T02:14:07;3.80;;;3.50;;
57551;SDS011;43379;48.160;14.036;2022-09-17T02:16:38;3.47;;;3.17;;
57551;SDS011;43379;48.160;14.036;2022-09-17T02:29:45;3.67;;;3.27;;
57551;SDS011;43379;48.160;14.036;2022-09-17T02:34:42;3.00;;;2.80;;
57551;SDS011;43379;48.160;14.036;2022-09-17T02:37:08;3.03;;;2.83;;
57551;SDS011;43379;48.160;14.036;2022-09-17T02:39:34;2.87;;;2.67;;
57551;SDS011;43379;48.160;14.036;2022-09-17T02:47:49;3.40;;;3.10;;
57551;SDS011;43379;48.160;14.036;2022-09-17T02:55:49;3.40;;;3.10;;
57551;SDS011;43379;48.160;14.036;2022-09-17T02:58:25;3.10;;;2.90;;
57551;SDS011;43379;48.160;14.036;2022-09-17T03:00:58;3.03;;;2.83;;
57551;SDS011;43379;48.160;14.036;2022-09-17T03:03:30;4.57;;;3.50;;
57551;SDS011;43379;48.160;14.036;2022-09-17T03:06:03;3.90;;;3.50;;
57551;SDS011;43379;48.160;14.036;2022-09-17T03:08:36;3.60;;;3.30;;
57551;SDS011;43379;48.160;14.036;2022-09-17T03:11:06;3.53;;;3.33;;
57551;SDS011;43379;48.160;14.036;2022-09-17T03:13:33;4.37;;;3.50;;
57551;SDS011;43379;48.160;14.036;2022-09-17T03:16:00;4.27;;;3.97;;
57551;SDS011;43379;48.160;14.036;2022-09-17T03:18:30;6.00;;;4.30;;
57551;SDS011;43379;48.160;14.036;2022-09-17T03:20:56;4.10;;;3.80;;
57551;SDS011;43379;48.160;14.036;2022-09-17T03:23:22;5.30;;;4.10;;
57551;SDS011;43379;48.160;14.036;2022-09-17T03:25:47;4.90;;;4.50;;
57551;SDS011;43379;48.160;14.036;2022-09-17T03:28:13;4.83;;;4.43;;
57551;SDS011;43379;48.160;14.036;2022-09-17T03:30:40;4.80;;;4.40;;
57551;SDS011;43379;48.160;14.036;2022-09-17T03:33:08;5.10;;;4.60;;
57551;SDS011;43379;48.160;14.036;2022-09-17T03:35:33;4.40;;;4.10;;
57551;SDS011;43379;48.160;14.036;2022-09-17T03:37:59;4.73;;;4.43;;
57551;SDS011;43379;48.160;14.036;2022-09-17T03:40:25;5.10;;;4.60;;
57551;SDS011;43379;48.160;14.036;2022-09-17T03:42:50;4.60;;;4.20;;
57551;SDS011;43379;48.160;14.036;2022-09-17T03:45:16;4.80;;;4.30;;
57551;SDS011;43379;48.160;14.036;2022-09-17T03:47:42;4.60;;;4.20;;
57551;SDS011;43379;48.160;14.036;2022-09-17T03:50:07;5.43;;;4.80;;
57551;SDS011;43379;48.160;14.036;2022-09-17T03:52:33;5.10;;;4.47;;
57551;SDS011;43379;48.160;14.036;2022-09-17T03:54:59;5.03;;;4.73;;
57551;SDS011;43379;48.160;14.036;2022-09-17T03:57:25;5.50;;;5.00;;
57551;SDS011;43379;48.160;14.036;2022-09-17T03:59:50;4.90;;;4.50;;
57551;SDS011;43379;48.160;14.036;2022-09-17T04:02:16;5.10;;;4.73;;
57551;SDS011;43379;48.160;14.036;2022-09-17T04:04:42;4.80;;;4.40;;
57551;SDS011;43379;48.160;14.036;2022-09-17T04:07:08;5.30;;;4.90;;
57551;SDS011;43379;48.160;14.036;2022-09-17T04:09:33;6.10;;;5.60;;
57551;SDS011;43379;48.160;14.036;2022-09-17T04:11:59;5.57;;;5.17;;
57551;SDS011;43379;48.160;14.036;2022-09-17T04:14:25;5.30;;;4.90;;
57551;SDS011;43379;48.160;14.036;2022-09-17T04:16:50;5.60;;;5.10;;
57551;SDS011;43379;48.160;14.036;2022-09-17T04:19:16;6.10;;;5.50;;
57551;SDS011;43379;48.160;14.036;2022-09-17T04:21:42;5.60;;;5.20;;
57551;SDS011;43379;48.160;14.036;2022-09-17T04:24:08;6.07;;;5.57;;
57551;SDS011;43379;48.160;14.036;2022-09-17T04:26:33;6.13;;;5.63;;
57551;SDS011;43379;48.160;14.036;2022-09-17T04:28:59;7.87;;;6.47;;
57551;SDS011;43379;48.160;14.036;2022-09-17T04:31:25;6.10;;;5.70;;
57551;SDS011;43379;48.160;14.036;2022-09-17T04:33:51;6.10;;;5.70;;
57551;SDS011;43379;48.160;14.036;2022-09-17T04:36:17;5.10;;;4.70;;
57551;SDS011;43379;48.160;14.036;2022-09-17T04:38:43;6.10;;;5.60;;
57551;SDS011;43379;48.160;14.036;2022-09-17T04:41:11;5.63;;;5.13;;
57551;SDS011;43379;48.160;14.036;2022-09-17T04:43:37;5.80;;;5.30;;
57551;SDS011;43379;48.160;14.036;2022-09-17T04:46:02;6.90;;;6.37;;
57551;SDS011;43379;48.160;14.036;2022-09-17T04:48:28;5.57;;;5.17;;
57551;SDS011;43379;48.160;14.036;2022-09-17T04:50:54;6.20;;;5.70;;
57551;SDS011;43379;48.160;14.036;2022-09-17T04:53:20;5.40;;;5.00;;
57551;SDS011;43379;48.160;14.036;2022-09-17T04:55:45;6.43;;;5.87;;
57551;SDS011;43379;48.160;14.036;2022-09-17T04:58:11;6.50;;;6.00;;
57551;SDS011;43379;48.160;14.036;2022-09-17T05:00:36;6.47;;;5.40;;
57551;SDS011;43379;48.160;14.036;2022-09-17T05:03:02;5.93;;;5.33;;
57551;SDS011;43379;48.160;14.036;2022-09-17T05:05:28;5.97;;;5.47;;
57551;SDS011;43379;48.160;14.036;2022-09-17T05:07:53;5.67;;;5.17;;
57551;SDS011;43379;48.160;14.036;2022-09-17T05:10:20;6.13;;;5.63;;
57551;SDS011;43379;48.160;14.036;2022-09-17T05:12:55;5.80;;;5.30;;
57551;SDS011;43379;48.160;14.036;2022-09-17T05:15:22;5.63;;;5.07;;
57551;SDS011;43379;48.160;14.036;2022-09-17T05:17:48;5.50;;;5.00;;
57551;SDS011;43379;48.160;14.036;2022-09-17T05:20:14;6.00;;;5.60;;
57551;SDS011;43379;48.160;14.036;2022-09-17T05:22:44;6.47;;;5.97;;
57551;SDS011;43379;48.160;14.036;2022-09-17T05:25:16;7.57;;;6.70;;
57551;SDS011;43379;48.160;14.036;2022-09-17T05:27:42;6.80;;;6.23;;
57551;SDS011;43379;48.160;14.036;2022-09-17T05:30:09;6.00;;;5.50;;
57551;SDS011;43379;48.160;14.036;2022-09-17T05:32:36;5.93;;;5.43;;
57551;SDS011;43379;48.160;14.036;2022-09-17T05:35:02;6.53;;;5.93;;
57551;SDS011;43379;48.160;14.036;2022-09-17T05:37:28;6.60;;;5.80;;
57551;SDS011;43379;48.160;14.036;2022-09-17T05:39:54;5.37;;;4.87;;
57551;SDS011;43379;48.160;14.036;2022-09-17T05:42:19;6.13;;;5.10;;
57551;SDS011;43379;48.160;14.036;2022-09-17T05:44:45;4.53;;;4.20;;
57551;SDS011;43379;48.160;14.036;2022-09-17T05:47:11;4.20;;;3.80;;
57551;SDS011;43379;48.160;14.036;2022-09-17T05:49:36;6.17;;;5.07;;
57551;SDS011;43379;48.160;14.036;2022-09-17T05:52:02;4.47;;;4.07;;
57551;SDS011;43379;48.160;14.036;2022-09-17T05:54:28;4.53;;;4.17;;
57551;SDS011;43379;48.160;14.036;2022-09-17T05:56:54;5.83;;;5.33;;
57551;SDS011;43379;48.160;14.036;2022-09-17T05:59:20;4.23;;;3.93;;
57551;SDS011;43379;48.160;14.036;2022-09-17T06:01:46;5.50;;;4.23;;
57551;SDS011;43379;48.160;14.036;2022-09-17T06:04:12;4.00;;;3.63;;
57551;SDS011;43379;48.160;14.036;2022-09-17T06:06:38;5.10;;;4.70;;
57551;SDS011;43379;48.160;14.036;2022-09-17T06:09:05;5.03;;;4.63;;
57551;SDS011;43379;48.160;14.036;2022-09-17T06:11:31;4.93;;;4.53;;
57551;SDS011;43379;48.160;14.036;2022-09-17T06:13:57;5.03;;;4.50;;
57551;SDS011;43379;48.160;14.036;2022-09-17T06:16:23;7.60;;;5.77;;
57551;SDS011;43379;48.160;14.036;2022-09-17T06:18:49;4.30;;;3.90;;
57551;SDS011;43379;48.160;14.036;2022-09-17T06:21:16;4.00;;;3.70;;
57551;SDS011;43379;48.160;14.036;2022-09-17T06:23:43;4.20;;;3.80;;
57551;SDS011;43379;48.160;14.036;2022-09-17T06:26:09;4.53;;;3.30;;
57551;SDS011;43379;48.160;14.036;2022-09-17T06:28:34;3.90;;;3.00;;
57551;SDS011;43379;48.160;14.036;2022-09-17T06:31:02;3.67;;;3.10;;
57551;SDS011;43379;48.160;14.036;2022-09-17T06:33:29;3.77;;;3.27;;
57551;SDS011;43379;48.160;14.036;2022-09-17T06:35:56;4.20;;;3.60;;
57551;SDS011;43379;48.160;14.036;2022-09-17T06:38:27;4.73;;;4.23;;
57551;SDS011;43379;48.160;14.036;2022-09-17T06:40:53;4.50;;;3.67;;
57551;SDS011;43379;48.160;14.036;2022-09-17T06:43:19;5.10;;;3.67;;
57551;SDS011;43379;48.160;14.036;2022-09-17T06:45:58;5.17;;;3.73;;
57551;SDS011;43379;48.160;14.036;2022-09-17T06:48:25;3.50;;;3.20;;
57551;SDS011;43379;48.160;14.036;2022-09-17T06:50:52;3.73;;;3.43;;
57551;SDS011;43379;48.160;14.036;2022-09-17T06:53:19;4.13;;;3.30;;
57551;SDS011;43379;48.160;14.036;2022-09-17T06:55:46;4.80;;;3.07;;
57551;SDS011;43379;48.160;14.036;2022-09-17T06:58:11;4.00;;;3.27;;
57551;SDS011;43379;48.160;14.036;2022-09-17T07:00:37;3.90;;;3.13;;
57551;SDS011;43379;48.160;14.036;2022-09-17T07:03:03;4.20;;;3.77;;
57551;SDS011;43379;48.160;14.036;2022-09-17T07:05:29;6.03;;;3.77;;
57551;SDS011;43379;48.160;14.036;2022-09-17T07:07:59;4.17;;;3.83;;
57551;SDS011;43379;48.160;14.036;2022-09-17T07:10:27;4.17;;;3.80;;
57551;SDS011;43379;48.160;14.036;2022-09-17T07:12:52;5.40;;;3.73;;
57551;SDS011;43379;48.160;14.036;2022-09-17T07:15:18;4.10;;;3.70;;
57551;SDS011;43379;48.160;14.036;2022-09-17T07:17:44;4.53;;;3.87;;
57551;SDS011;43379;48.160;14.036;2022-09-17T07:20:11;5.07;;;4.43;;
57551;SDS011;43379;48.160;14.036;2022-09-17T07:22:36;5.63;;;3.40;;
57551;SDS011;43379;48.160;14.036;2022-09-17T07:25:02;4.00;;;3.70;;
57551;SDS011;43379;48.160;14.036;2022-09-17T07:27:29;4.33;;;3.93;;
57551;SDS011;43379;48.160;14.036;2022-09-17T07:29:55;4.60;;;4.20;;
57551;SDS011;43379;48.160;14.036;2022-09-17T07:32:21;5.20;;;4.07;;
57551;SDS011;43379;48.160;14.036;2022-09-17T07:34:47;6.87;;;4.37;;
57551;SDS011;43379;48.160;14.036;2022-09-17T07:37:16;4.13;;;3.70;;
57551;SDS011;43379;48.160;14.036;2022-09-17T07:39:42;4.60;;;4.30;;
57551;SDS011;43379;48.160;14.036;2022-09-17T07:42:08;5.60;;;4.87;;
57551;SDS011;43379;48.160;14.036;2022-09-17T07:44:35;5.40;;;4.80;;
57551;SDS011;43379;48.160;14.036;2022-09-17T07:47:01;4.93;;;4.60;;
57551;SDS011;43379;48.160;14.036;2022-09-17T07:49:26;5.03;;;4.63;;
57551;SDS011;43379;48.160;14.036;2022-09-17T07:51:52;5.60;;;5.10;;
57551;SDS011;43379;48.160;14.036;2022-09-17T07:54:20;6.40;;;5.67;;
57551;SDS011;43379;48.160;14.036;2022-09-17T07:56:45;4.93;;;4.57;;
57551;SDS011;43379;48.160;14.036;2022-09-17T07:59:11;5.90;;;5.17;;
57551;SDS011;43379;48.160;14.036;2022-09-17T08:01:37;5.07;;;4.67;;
57551;SDS011;43379;48.160;14.036;2022-09-17T08:04:03;6.10;;;5.70;;
57551;SDS011;43379;48.160;14.036;2022-09-17T08:06:30;5.13;;;4.47;;
57551;SDS011;43379;48.160;14.036;2022-09-17T08:08:56;4.73;;;4.33;;
57551;SDS011;43379;48.160;14.036;2022-09-17T08:11:27;5.83;;;5.33;;
57551;SDS011;43379;48.160;14.036;2022-09-17T08:13:54;4.33;;;3.97;;
57551;SDS011;43379;48.160;14.036;2022-09-17T08:16:20;6.53;;;4.47;;
57551;SDS011;43379;48.160;14.036;2022-09-17T08:18:47;4.57;;;4.23;;
57551;SDS011;43379;48.160;14.036;2022-09-17T08:21:15;5.13;;;4.63;;
57551;SDS011;43379;48.160;14.036;2022-09-17T08:23:42;6.13;;;4.83;;
57551;SDS011;43379;48.160;14.036;2022-09-17T08:26:12;4.93;;;4.53;;
57551;SDS011;43379;48.160;14.036;2022-09-17T08:28:42;6.03;;;4.47;;
57551;SDS011;43379;48.160;14.036;2022-09-17T08:31:09;6.67;;;5.00;;
57551;SDS011;43379;48.160;14.036;2022-09-17T08:33:37;4.80;;;4.03;;
57551;SDS011;43379;48.160;14.036;2022-09-17T08:36:04;3.80;;;3.50;;
57551;SDS011;43379;48.160;14.036;2022-09-17T08:38:32;4.30;;;3.90;;
57551;SDS011;43379;48.160;14.036;2022-09-17T08:43:38;4.60;;;3.83;;
57551;SDS011;43379;48.160;14.036;2022-09-17T08:46:16;5.33;;;3.80;;
57551;SDS011;43379;48.160;14.036;2022-09-17T08:48:44;3.97;;;3.57;;
57551;SDS011;43379;48.160;14.036;2022-09-17T08:51:23;3.90;;;3.50;;
57551;SDS011;43379;48.160;14.036;2022-09-17T08:56:48;4.33;;;3.93;;
57551;SDS011;43379;48.160;14.036;2022-09-17T08:59:28;6.00;;;3.83;;
57551;SDS011;43379;48.160;14.036;2022-09-17T09:04:45;6.07;;;3.60;;
57551;SDS011;43379;48.160;14.036;2022-09-17T09:07:27;6.40;;;4.00;;
57551;SDS011;43379;48.160;14.036;2022-09-17T09:10:07;3.33;;;3.00;;
57551;SDS011;43379;48.160;14.036;2022-09-17T09:12:42;3.00;;;2.80;;
57551;SDS011;43379;48.160;14.036;2022-09-17T09:18:04;4.80;;;2.83;;
57551;SDS011;43379;48.160;14.036;2022-09-17T09:20:47;3.50;;;3.20;;
57551;SDS011;43379;48.160;14.036;2022-09-17T09:23:16;5.93;;;3.10;;
57551;SDS011;43379;48.160;14.036;2022-09-17T09:25:58;2.97;;;2.67;;
57551;SDS011;43379;48.160;14.036;2022-09-17T09:31:26;3.20;;;2.33;;
57551;SDS011;43379;48.160;14.036;2022-09-17T09:34:09;3.67;;;2.43;;
57551;SDS011;43379;48.160;14.036;2022-09-17T09:36:37;4.90;;;2.17;;
57551;SDS011;43379;48.160;14.036;2022-09-17T09:41:48;3.07;;;2.10;;
57551;SDS011;43379;48.160;14.036;2022-09-17T09:44:15;5.33;;;2.67;;
57551;SDS011;43379;48.160;14.036;2022-09-17T09:57:46;2.70;;;1.90;;
57551;SDS011;43379;48.160;14.036;2022-09-17T10:05:31;2.73;;;2.07;;
57551;SDS011;43379;48.160;14.036;2022-09-17T10:07:56;4.07;;;2.40;;
57551;SDS011;43379;48.160;14.036;2022-09-17T10:10:23;4.20;;;2.03;;
57551;SDS011;43379;48.160;14.036;2022-09-17T10:12:56;6.27;;;2.50;;
57551;SDS011;43379;48.160;14.036;2022-09-17T10:15:30;3.70;;;2.27;;
57551;SDS011;43379;48.160;14.036;2022-09-17T10:18:40;6.30;;;2.50;;
57551;SDS011;43379;48.160;14.036;2022-09-17T10:20:55;7.50;;;4.17;;
57551;SDS011;43379;48.160;14.036;2022-09-17T10:23:24;4.10;;;2.60;;
57551;SDS011;43379;48.160;14.036;2022-09-17T10:25:52;3.83;;;2.47;;
57551;SDS011;43379;48.160;14.036;2022-09-17T10:29:05;4.13;;;1.90;;
57551;SDS011;43379;48.160;14.036;2022-09-17T10:31:06;2.30;;;2.00;;
57551;SDS011;43379;48.160;14.036;2022-09-17T10:33:39;2.70;;;1.60;;
57551;SDS011;43379;48.160;14.036;2022-09-17T10:36:16;2.10;;;1.90;;
57551;SDS011;43379;48.160;14.036;2022-09-17T10:41:54;3.10;;;2.23;;
57551;SDS011;43379;48.160;14.036;2022-09-17T10:44:21;3.93;;;1.90;;
57551;SDS011;43379;48.160;14.036;2022-09-17T10:46:48;4.27;;;1.90;;
57551;SDS011;43379;48.160;14.036;2022-09-17T10:49:33;6.83;;;2.30;;
57551;SDS011;43379;48.160;14.036;2022-09-17T10:52:07;6.70;;;1.83;;
57551;SDS011;43379;48.160;14.036;2022-09-17T10:57:04;3.60;;;2.20;;
57551;SDS011;43379;48.160;14.036;2022-09-17T11:04:53;2.93;;;2.33;;
57551;SDS011;43379;48.160;14.036;2022-09-17T11:07:43;3.43;;;2.10;;
57551;SDS011;43379;48.160;14.036;2022-09-17T11:10:27;2.67;;;1.50;;
57551;SDS011;43379;48.160;14.036;2022-09-17T11:18:40;2.17;;;1.47;;
57551;SDS011;43379;48.160;14.036;2022-09-17T11:32:25;5.30;;;2.57;;
57551;SDS011;43379;48.160;14.036;2022-09-17T11:35:11;6.23;;;3.87;;
57551;SDS011;43379;48.160;14.036;2022-09-17T11:42:55;2.17;;;1.80;;
57551;SDS011;43379;48.160;14.036;2022-09-17T11:45:27;3.17;;;2.10;;
57551;SDS011;43379;48.160;14.036;2022-09-17T11:50:44;3.30;;;1.73;;
57551;SDS011;43379;48.160;14.036;2022-09-17T12:02:01;4.10;;;1.10;;
57551;SDS011;43379;48.160;14.036;2022-09-17T12:10:17;1.50;;;1.40;;
57551;SDS011;43379;48.160;14.036;2022-09-17T12:18:45;1.60;;;1.50;;
57551;SDS011;43379;48.160;14.036;2022-09-17T12:21:26;1.10;;;1.00;;
57551;SDS011;43379;48.160;14.036;2022-09-17T12:24:11;5.33;;;2.00;;
57551;SDS011;43379;48.160;14.036;2022-09-17T12:26:48;1.40;;;1.30;;
57551;SDS011;43379;48.160;14.036;2022-09-17T12:37:44;1.70;;;1.00;;
57551;SDS011;43379;48.160;14.036;2022-09-17T12:43:00;2.07;;;1.47;;
57551;SDS011;43379;48.160;14.036;2022-09-17T12:53:50;1.77;;;1.30;;
57551;SDS011;43379;48.160;14.036;2022-09-17T12:56:37;1.40;;;1.30;;
57551;SDS011;43379;48.160;14.036;2022-09-17T12:59:15;1.20;;;0.90;;
57551;SDS011;43379;48.160;14.036;2022-09-17T13:18:53;1.90;;;1.77;;
57551;SDS011;43379;48.160;14.036;2022-09-17T13:24:20;3.43;;;2.30;;
57551;SDS011;43379;48.160;14.036;2022-09-17T13:26:49;4.33;;;2.93;;
57551;SDS011;43379;48.160;14.036;2022-09-17T13:37:41;2.60;;;1.77;;
57551;SDS011;43379;48.160;14.036;2022-09-17T13:40:27;2.63;;;2.20;;
57551;SDS011;43379;48.160;14.036;2022-09-17T13:43:05;2.43;;;1.70;;
57551;SDS011;43379;48.160;14.036;2022-09-17T13:45:32;1.93;;;1.67;;
57551;SDS011;43379;48.160;14.036;2022-09-17T13:55:38;3.13;;;1.83;;
57551;SDS011;43379;48.160;14.036;2022-09-17T13:58:09;2.83;;;2.00;;
57551;SDS011;43379;48.160;14.036;2022-09-17T14:05:54;2.70;;;1.80;;
57551;SDS011;43379;48.160;14.036;2022-09-17T14:08:30;4.10;;;2.03;;
57551;SDS011;43379;48.160;14.036;2022-09-17T14:21:44;9.90;;;4.83;;
57551;SDS011;43379;48.160;14.036;2022-09-17T14:30:14;11.70;;;5.77;;
57551;SDS011;43379;48.160;14.036;2022-09-17T14:38:08;11.70;;;8.03;;
57551;SDS011;43379;48.160;14.036;2022-09-17T14:40:49;8.30;;;3.90;;
57551;SDS011;43379;48.160;14.036;2022-09-17T14:46:12;3.70;;;2.60;;
57551;SDS011;43379;48.160;14.036;2022-09-17T14:48:41;4.27;;;2.73;;
57551;SDS011;43379;48.160;14.036;2022-09-17T14:53:43;3.07;;;2.73;;
57551;SDS011;43379;48.160;14.036;2022-09-17T14:56:16;4.10;;;2.60;;
57551;SDS011;43379;48.160;14.036;2022-09-17T14:58:50;4.30;;;1.90;;
57551;SDS011;43379;48.160;14.036;2022-09-17T15:07:07;2.77;;;1.70;;
57551;SDS011;43379;48.160;14.036;2022-09-17T15:09:36;3.67;;;2.17;;
57551;SDS011;43379;48.160;14.036;2022-09-17T15:12:01;2.33;;;1.97;;
57551;SDS011;43379;48.160;14.036;2022-09-17T15:14:29;3.60;;;2.70;;
57551;SDS011;43379;48.160;14.036;2022-09-17T15:17:01;3.53;;;2.40;;
57551;SDS011;43379;48.160;14.036;2022-09-17T15:19:30;1.90;;;1.60;;
57551;SDS011;43379;48.160;14.036;2022-09-17T15:22:11;2.43;;;2.23;;
57551;SDS011;43379;48.160;14.036;2022-09-17T15:24:47;1.87;;;1.63;;
57551;SDS011;43379;48.160;14.036;2022-09-17T15:27:28;1.70;;;1.57;;
57551;SDS011;43379;48.160;14.036;2022-09-17T15:30:00;5.83;;;1.87;;
57551;SDS011;43379;48.160;14.036;2022-09-17T15:32:29;2.83;;;2.20;;
57551;SDS011;43379;48.160;14.036;2022-09-17T15:37:45;3.03;;;1.80;;
57551;SDS011;43379;48.160;14.036;2022-09-17T15:40:31;2.27;;;1.50;;
57551;SDS011;43379;48.160;14.036;2022-09-17T15:45:37;2.10;;;1.60;;
57551;SDS011;43379;48.160;14.036;2022-09-17T15:48:04;2.93;;;1.83;;
57551;SDS011;43379;48.160;14.036;2022-09-17T15:58:16;5.10;;;4.60;;
57551;SDS011;43379;48.160;14.036;2022-09-17T16:08:46;3.40;;;3.00;;
57551;SDS011;43379;48.160;14.036;2022-09-17T16:11:14;3.93;;;2.43;;
57551;SDS011;43379;48.160;14.036;2022-09-17T16:13:40;3.20;;;2.20;;
57551;SDS011;43379;48.160;14.036;2022-09-17T16:16:07;3.60;;;2.47;;
57551;SDS011;43379;48.160;14.036;2022-09-17T16:18:38;7.20;;;3.17;;
57551;SDS011;43379;48.160;14.036;2022-09-17T16:21:04;5.03;;;2.97;;
57551;SDS011;43379;48.160;14.036;2022-09-17T16:23:29;3.77;;;2.33;;
57551;SDS011;43379;48.160;14.036;2022-09-17T16:25:55;3.47;;;3.17;;
57551;SDS011;43379;48.160;14.036;2022-09-17T16:28:22;5.13;;;3.03;;
57551;SDS011;43379;48.160;14.036;2022-09-17T16:30:48;7.10;;;3.10;;
57551;SDS011;43379;48.160;14.036;2022-09-17T16:33:14;3.83;;;3.00;;
57551;SDS011;43379;48.160;14.036;2022-09-17T16:35:42;4.10;;;3.33;;
57551;SDS011;43379;48.160;14.036;2022-09-17T16:38:08;7.03;;;3.20;;
57551;SDS011;43379;48.160;14.036;2022-09-17T16:40:38;4.20;;;3.00;;
57551;SDS011;43379;48.160;14.036;2022-09-17T16:43:05;4.03;;;2.50;;
57551;SDS011;43379;48.160;14.036;2022-09-17T16:45:32;5.63;;;2.47;;
57551;SDS011;43379;48.160;14.036;2022-09-17T16:47:58;4.27;;;2.27;;
57551;SDS011;43379;48.160;14.036;2022-09-17T16:50:24;5.57;;;2.80;;
57551;SDS011;43379;48.160;14.036;2022-09-17T16:52:50;3.80;;;2.37;;
57551;SDS011;43379;48.160;14.036;2022-09-17T16:55:17;4.40;;;3.37;;
57551;SDS011;43379;48.160;14.036;2022-09-17T16:57:44;4.93;;;3.90;;
57551;SDS011;43379;48.160;14.036;2022-09-17T17:00:12;4.50;;;3.40;;
57551;SDS011;43379;48.160;14.036;2022-09-17T17:02:41;6.57;;;3.57;;
57551;SDS011;43379;48.160;14.036;2022-09-17T17:05:07;5.70;;;3.20;;
57551;SDS011;43379;48.160;14.036;2022-09-17T17:07:34;3.33;;;2.80;;
57551;SDS011;43379;48.160;14.036;2022-09-17T17:10:00;3.67;;;2.27;;
57551;SDS011;43379;48.160;14.036;2022-09-17T17:12:27;1.97;;;1.70;;
57551;SDS011;43379;48.160;14.036;2022-09-17T17:14:53;2.70;;;1.67;;
57551;SDS011;43379;48.160;14.036;2022-09-17T17:17:19;1.90;;;1.30;;
57551;SDS011;43379;48.160;14.036;2022-09-17T17:19:45;2.10;;;1.90;;
57551;SDS011;43379;48.160;14.036;2022-09-17T17:22:11;2.07;;;1.87;;
57551;SDS011;43379;48.160;14.036;2022-09-17T17:24:38;2.00;;;1.40;;
57551;SDS011;43379;48.160;14.036;2022-09-17T17:27:03;2.10;;;1.80;;
57551;SDS011;43379;48.160;14.036;2022-09-17T17:29:29;4.17;;;1.53;;
57551;SDS011;43379;48.160;14.036;2022-09-17T17:31:55;1.47;;;1.37;;
57551;SDS011;43379;48.160;14.036;2022-09-17T17:34:21;1.70;;;1.60;;
57551;SDS011;43379;48.160;14.036;2022-09-17T17:36:49;1.60;;;1.50;;
57551;SDS011;43379;48.160;14.036;2022-09-17T17:39:15;1.63;;;1.53;;
57551;SDS011;43379;48.160;14.036;2022-09-17T17:41:41;1.77;;;1.57;;
57551;SDS011;43379;48.160;14.036;2022-09-17T17:44:09;2.53;;;1.57;;
57551;SDS011;43379;48.160;14.036;2022-09-17T17:46:37;3.20;;;1.50;;
57551;SDS011;43379;48.160;14.036;2022-09-17T17:49:03;2.40;;;1.50;;
57551;SDS011;43379;48.160;14.036;2022-09-17T17:51:29;2.20;;;1.50;;
57551;SDS011;43379;48.160;14.036;2022-09-17T17:53:55;1.90;;;1.50;;
57551;SDS011;43379;48.160;14.036;2022-09-17T17:56:21;2.10;;;1.57;;
57551;SDS011;43379;48.160;14.036;2022-09-17T17:58:47;5.90;;;1.63;;
57551;SDS011;43379;48.160;14.036;2022-09-17T18:01:19;2.10;;;1.57;;
57551;SDS011;43379;48.160;14.036;2022-09-17T18:03:46;4.73;;;1.73;;
57551;SDS011;43379;48.160;14.036;2022-09-17T18:06:12;2.37;;;1.50;;
57551;SDS011;43379;48.160;14.036;2022-09-17T18:08:38;2.03;;;1.70;;
57551;SDS011;43379;48.160;14.036;2022-09-17T18:11:05;7.33;;;1.80;;
57551;SDS011;43379;48.160;14.036;2022-09-17T18:13:33;3.80;;;1.50;;
57551;SDS011;43379;48.160;14.036;2022-09-17T18:16:00;2.10;;;1.80;;
57551;SDS011;43379;48.160;14.036;2022-09-17T18:18:33;1.87;;;1.77;;
57551;SDS011;43379;48.160;14.036;2022-09-17T18:21:04;2.70;;;1.67;;
57551;SDS011;43379;48.160;14.036;2022-09-17T18:23:35;2.53;;;1.63;;
57551;SDS011;43379;48.160;14.036;2022-09-17T18:26:03;1.57;;;1.47;;
57551;SDS011;43379;48.160;14.036;2022-09-17T18:28:30;2.30;;;1.80;;
57551;SDS011;43379;48.160;14.036;2022-09-17T18:31:03;1.43;;;1.27;;
57551;SDS011;43379;48.160;14.036;2022-09-17T18:33:32;1.57;;;1.30;;
57551;SDS011;43379;48.160;14.036;2022-09-17T18:35:59;1.40;;;1.30;;
57551;SDS011;43379;48.160;14.036;2022-09-17T18:38:27;1.80;;;1.27;;
57551;SDS011;43379;48.160;14.036;2022-09-17T18:40:53;1.57;;;1.30;;
57551;SDS011;43379;48.160;14.036;2022-09-17T18:43:19;2.00;;;1.90;;
57551;SDS011;43379;48.160;14.036;2022-09-17T18:45:52;2.27;;;1.47;;
57551;SDS011;43379;48.160;14.036;2022-09-17T18:48:19;1.53;;;1.43;;
57551;SDS011;43379;48.160;14.036;2022-09-17T18:50:58;1.80;;;1.50;;
57551;SDS011;43379;48.160;14.036;2022-09-17T18:53:32;2.90;;;2.60;;
57551;SDS011;43379;48.160;14.036;2022-09-17T18:56:09;2.07;;;1.50;;
57551;SDS011;43379;48.160;14.036;2022-09-17T18:58:50;1.97;;;1.77;;
57551;SDS011;43379;48.160;14.036;2022-09-17T19:01:17;1.83;;;1.73;;
57551;SDS011;43379;48.160;14.036;2022-09-17T19:03:44;2.10;;;1.90;;
57551;SDS011;43379;48.160;14.036;2022-09-17T19:06:11;2.10;;;1.77;;